sensor_id;sensor_type;location;lat;lon;timestamp;pressure;altitude;pressure_sealevel;temperature;humidity
70015;BME280;57358;51.094;6.760;2023-02-18T00:02:12;101719.34;;;9.36;100.00
70015;BME280;57358;51.094;6.760;2023-02-18T00:04:38;101855.63;;;10.21;100.00
70015;BME280;57358;51.094;6.760;2023-02-18T00:07:05;101839.34;;;10.10;100.00
70015;BME280;57358;51.094;6.760;2023-02-18T00:09:31;101801.22;;;9.99;100.00
70015;BME280;57358;51.094;6.760;2023-02-18T00:11:57;101839.22;;;10.14;100.00
70015;BME280;57358;51.094;6.760;2023-02-18T00:14:24;101847.84;;;10.18;100.00
70015;BME280;57358;51.094;6.760;2023-02-18T00:16:50;101889.69;;;10.51;100.00
70015;BME280;57358;51.094;6.760;2023-02-18T00:19:18;101890.53;;;10.51;100.00
70015;BME280;57358;51.094;6.760;2023-02-18T00:21:45;101777.84;;;9.92;100.00
70015;BME280;57358;51.094;6.760;2023-02-18T00:24:14;101866.41;;;10.40;100.00
70015;BME280;57358;51.094;6.760;2023-02-18T00:26:41;101857.25;;;10.25;100.00
70015;BME280;57358;51.094;6.760;2023-02-18T00:29:07;101516.63;;;8.28;100.00
70015;BME280;57358;51.094;6.760;2023-02-18T00:31:35;101865.47;;;10.43;100.00
70015;BME280;57358;51.094;6.760;2023-02-18T00:34:03;101818.78;;;10.24;100.00
70015;BME280;57358;51.094;6.760;2023-02-18T00:36:30;101845.41;;;10.40;100.00
70015;BME280;57358;51.094;6.760;2023-02-18T00:38:59;101825.72;;;10.27;100.00
70015;BME280;57358;51.094;6.760;2023-02-18T00:41:27;101847.91;;;10.45;100.00
70015;BME280;57358;51.094;6.760;2023-02-18T00:43:53;101848.84;;;10.42;100.00
70015;BME280;57358;51.094;6.760;2023-02-18T00:46:21;101855.00;;;10.41;100.00
70015;BME280;57358;51.094;6.760;2023-02-18T00:48:47;101825.75;;;10.25;100.00
70015;BME280;57358;51.094;6.760;2023-02-18T00:51:14;101847.97;;;10.42;100.00
70015;BME280;57358;51.094;6.760;2023-02-18T00:53:41;101825.84;;;10.22;100.00
70015;BME280;57358;51.094;6.760;2023-02-18T00:56:08;101851.53;;;10.41;100.00
70015;BME280;57358;51.094;6.760;2023-02-18T00:58:35;101846.31;;;10.39;100.00
70015;BME280;57358;51.094;6.760;2023-02-18T01:01:04;101770.97;;;9.89;100.00
70015;BME280;57358;51.094;6.760;2023-02-18T01:03:33;101843.75;;;10.37;100.00
70015;BME280;57358;51.094;6.760;2023-02-18T01:05:59;101776.03;;;9.94;100.00
70015;BME280;57358;51.094;6.760;2023-02-18T01:08:26;101739.72;;;9.82;100.00
70015;BME280;57358;51.094;6.760;2023-02-18T01:10:56;101828.16;;;10.33;100.00
70015;BME280;57358;51.094;6.760;2023-02-18T01:13:23;101826.34;;;10.35;100.00
70015;BME280;57358;51.094;6.760;2023-02-18T01:15:50;101832.44;;;10.35;100.00
70015;BME280;57358;51.094;6.760;2023-02-18T01:18:17;101793.75;;;10.14;100.00
70015;BME280;57358;51.094;6.760;2023-02-18T01:20:44;101585.50;;;8.88;100.00
70015;BME280;57358;51.094;6.760;2023-02-18T01:23:12;101767.88;;;10.03;100.00
70015;BME280;57358;51.094;6.760;2023-02-18T01:25:39;101823.78;;;10.33;100.00
70015;BME280;57358;51.094;6.760;2023-02-18T01:28:07;101739.59;;;9.86;100.00
70015;BME280;57358;51.094;6.760;2023-02-18T01:30:34;101792.66;;;10.21;100.00
70015;BME280;57358;51.094;6.760;2023-02-18T01:33:01;101828.03;;;10.36;100.00
70015;BME280;57358;51.094;6.760;2023-02-18T01:35:27;101819.44;;;10.32;100.00
70015;BME280;57358;51.094;6.760;2023-02-18T01:37:53;101819.44;;;10.32;100.00
70015;BME280;57358;51.094;6.760;2023-02-18T01:40:23;101791.94;;;10.16;100.00
70015;BME280;57358;51.094;6.760;2023-02-18T01:42:50;101794.44;;;10.21;100.00
70015;BME280;57358;51.094;6.760;2023-02-18T01:48:00;101810.75;;;10.30;100.00
70015;BME280;57358;51.094;6.760;2023-02-18T01:50:30;101779.91;;;10.10;100.00
70015;BME280;57358;51.094;6.760;2023-02-18T01:52:56;101675.91;;;9.56;100.00
70015;BME280;57358;51.094;6.760;2023-02-18T01:55:23;101802.94;;;10.27;100.00
70015;BME280;57358;51.094;6.760;2023-02-18T01:57:49;101727.34;;;9.87;100.00
70015;BME280;57358;51.094;6.760;2023-02-18T02:00:17;101731.63;;;9.89;100.00
70015;BME280;57358;51.094;6.760;2023-02-18T02:02:48;101783.97;;;10.19;100.00
70015;BME280;57358;51.094;6.760;2023-02-18T02:05:17;101772.78;;;10.14;100.00
70015;BME280;57358;51.094;6.760;2023-02-18T02:07:46;101724.16;;;9.77;100.00
70015;BME280;57358;51.094;6.760;2023-02-18T02:10:14;101749.69;;;9.98;100.00
70015;BME280;57358;51.094;6.760;2023-02-18T02:13:11;101779.78;;;10.13;100.00
70015;BME280;57358;51.094;6.760;2023-02-18T02:18:42;101759.09;;;10.04;100.00
70015;BME280;57358;51.094;6.760;2023-02-18T02:33:40;101730.47;;;9.98;100.00
70015;BME280;57358;51.094;6.760;2023-02-18T02:36:22;101727.03;;;9.96;100.00
70015;BME280;57358;51.094;6.760;2023-02-18T02:38:55;101721.84;;;9.94;100.00
70015;BME280;57358;51.094;6.760;2023-02-18T02:44:38;101701.56;;;9.99;100.00
70015;BME280;57358;51.094;6.760;2023-02-18T02:47:25;101693.69;;;9.99;100.00
70015;BME280;57358;51.094;6.760;2023-02-18T02:52:45;101690.81;;;10.07;100.00
70015;BME280;57358;51.094;6.760;2023-02-18T02:55:13;101696.22;;;10.03;100.00
70015;BME280;57358;51.094;6.760;2023-02-18T02:57:43;101692.34;;;10.14;100.00
70015;BME280;57358;51.094;6.760;2023-02-18T03:00:11;101690.66;;;10.12;100.00
70015;BME280;57358;51.094;6.760;2023-02-18T03:02:55;101679.34;;;10.10;100.00
70015;BME280;57358;51.094;6.760;2023-02-18T03:08:21;101689.75;;;10.13;100.00
70015;BME280;57358;51.094;6.760;2023-02-18T03:11:26;101692.56;;;10.08;100.00
70015;BME280;57358;51.094;6.760;2023-02-18T03:14:12;101673.97;;;10.14;100.00
70015;BME280;57358;51.094;6.760;2023-02-18T03:16:56;101672.88;;;10.20;100.00
70015;BME280;57358;51.094;6.760;2023-02-18T03:19:36;101659.19;;;10.12;100.00
70015;BME280;57358;51.094;6.760;2023-02-18T03:22:10;101669.53;;;10.16;100.00
70015;BME280;57358;51.094;6.760;2023-02-18T03:24:40;101568.19;;;9.64;100.00
70015;BME280;57358;51.094;6.760;2023-02-18T03:27:13;101654.00;;;10.10;100.00
70015;BME280;57358;51.094;6.760;2023-02-18T03:29:44;101669.31;;;10.23;100.00
70015;BME280;57358;51.094;6.760;2023-02-18T03:32:15;101653.88;;;10.13;100.00
70015;BME280;57358;51.094;6.760;2023-02-18T03:34:48;101666.78;;;10.19;100.00
70015;BME280;57358;51.094;6.760;2023-02-18T03:37:16;101645.94;;;10.16;100.00
70015;BME280;57358;51.094;6.760;2023-02-18T03:39:47;101658.97;;;10.18;100.00
70015;BME280;57358;51.094;6.760;2023-02-18T03:42:15;101637.81;;;9.97;100.00
70015;BME280;57358;51.094;6.760;2023-02-18T03:44:44;101659.13;;;10.13;100.00
70015;BME280;57358;51.094;6.760;2023-02-18T03:47:10;101658.38;;;10.10;100.00
70015;BME280;57358;51.094;6.760;2023-02-18T03:49:37;101637.16;;;9.92;100.00
70015;BME280;57358;51.094;6.760;2023-02-18T03:52:03;101629.59;;;9.83;100.00
70015;BME280;57358;51.094;6.760;2023-02-18T03:54:30;101616.19;;;9.66;100.00
70015;BME280;57358;51.094;6.760;2023-02-18T03:56:56;101611.19;;;9.58;100.00
70015;BME280;57358;51.094;6.760;2023-02-18T03:59:23;101583.13;;;9.62;100.00
70015;BME280;57358;51.094;6.760;2023-02-18T04:01:49;101587.53;;;9.61;100.00
70015;BME280;57358;51.094;6.760;2023-02-18T04:04:16;101632.78;;;9.91;100.00
70015;BME280;57358;51.094;6.760;2023-02-18T04:06:44;101618.09;;;9.87;100.00
70015;BME280;57358;51.094;6.760;2023-02-18T04:09:11;101646.72;;;9.93;100.00
70015;BME280;57358;51.094;6.760;2023-02-18T04:11:38;101609.19;;;9.91;100.00
70015;BME280;57358;51.094;6.760;2023-02-18T04:14:06;101614.50;;;9.90;100.00
70015;BME280;57358;51.094;6.760;2023-02-18T04:16:33;101594.53;;;9.86;100.00
70015;BME280;57358;51.094;6.760;2023-02-18T04:18:59;101574.03;;;9.72;100.00
70015;BME280;57358;51.094;6.760;2023-02-18T04:21:26;101498.94;;;9.21;100.00
70015;BME280;57358;51.094;6.760;2023-02-18T04:23:52;101588.59;;;9.81;100.00
70015;BME280;57358;51.094;6.760;2023-02-18T04:26:18;101559.50;;;9.63;100.00
70015;BME280;57358;51.094;6.760;2023-02-18T04:28:45;101592.28;;;9.75;100.00
70015;BME280;57358;51.094;6.760;2023-02-18T04:31:11;101593.13;;;9.75;100.00
70015;BME280;57358;51.094;6.760;2023-02-18T04:33:37;101511.91;;;9.24;100.00
70015;BME280;57358;51.094;6.760;2023-02-18T04:36:04;101588.97;;;9.70;100.00
70015;BME280;57358;51.094;6.760;2023-02-18T04:38:31;101446.97;;;8.82;100.00
70015;BME280;57358;51.094;6.760;2023-02-18T04:40:58;101421.25;;;8.68;100.00
70015;BME280;57358;51.094;6.760;2023-02-18T04:43:24;101482.13;;;9.01;100.00
70015;BME280;57358;51.094;6.760;2023-02-18T04:45:50;101535.88;;;9.38;100.00
70015;BME280;57358;51.094;6.760;2023-02-18T04:48:17;101577.66;;;9.68;100.00
70015;BME280;57358;51.094;6.760;2023-02-18T04:50:43;101463.84;;;8.99;100.00
70015;BME280;57358;51.094;6.760;2023-02-18T04:53:10;101501.59;;;9.19;100.00
70015;BME280;57358;51.094;6.760;2023-02-18T04:55:37;101517.03;;;9.28;100.00
70015;BME280;57358;51.094;6.760;2023-02-18T04:58:03;101503.38;;;9.18;100.00
70015;BME280;57358;51.094;6.760;2023-02-18T05:00:30;101556.13;;;9.59;100.00
70015;BME280;57358;51.094;6.760;2023-02-18T05:02:56;101538.41;;;9.41;100.00
70015;BME280;57358;51.094;6.760;2023-02-18T05:05:22;101541.25;;;9.60;100.00
70015;BME280;57358;51.094;6.760;2023-02-18T05:07:49;101380.75;;;8.53;100.00
70015;BME280;57358;51.094;6.760;2023-02-18T05:10:16;101565.59;;;9.64;100.00
70015;BME280;57358;51.094;6.760;2023-02-18T05:12:43;101556.81;;;9.65;100.00
70015;BME280;57358;51.094;6.760;2023-02-18T05:15:09;101469.84;;;9.03;100.00
70015;BME280;57358;51.094;6.760;2023-02-18T05:17:36;101488.72;;;9.13;100.00
70015;BME280;57358;51.094;6.760;2023-02-18T05:20:03;101447.38;;;8.96;100.00
70015;BME280;57358;51.094;6.760;2023-02-18T05:22:30;101499.75;;;9.23;100.00
70015;BME280;57358;51.094;6.760;2023-02-18T05:24:56;101380.69;;;8.56;100.00
70015;BME280;57358;51.094;6.760;2023-02-18T05:27:22;101470.53;;;9.08;100.00
70015;BME280;57358;51.094;6.760;2023-02-18T05:29:49;101560.47;;;9.61;100.00
70015;BME280;57358;51.094;6.760;2023-02-18T05:32:15;101524.28;;;9.45;100.00
70015;BME280;57358;51.094;6.760;2023-02-18T05:34:42;101542.25;;;9.56;100.00
70015;BME280;57358;51.094;6.760;2023-02-18T05:37:08;101529.09;;;9.57;100.00
70015;BME280;57358;51.094;6.760;2023-02-18T05:39:35;101472.88;;;9.16;100.00
70015;BME280;57358;51.094;6.760;2023-02-18T05:42:01;101559.75;;;9.55;100.00
70015;BME280;57358;51.094;6.760;2023-02-18T05:44:28;101468.34;;;9.21;100.00
70015;BME280;57358;51.094;6.760;2023-02-18T05:47:03;101516.13;;;9.54;100.00
70015;BME280;57358;51.094;6.760;2023-02-18T05:49:30;101490.50;;;9.37;100.00
70015;BME280;57358;51.094;6.760;2023-02-18T05:52:00;101508.19;;;9.56;100.00
70015;BME280;57358;51.094;6.760;2023-02-18T05:54:29;101504.09;;;9.49;100.00
70015;BME280;57358;51.094;6.760;2023-02-18T05:56:55;101433.00;;;9.08;100.00
70015;BME280;57358;51.094;6.760;2023-02-18T05:59:22;101480.97;;;9.35;100.00
70015;BME280;57358;51.094;6.760;2023-02-18T06:01:49;101505.84;;;9.48;100.00
70015;BME280;57358;51.094;6.760;2023-02-18T06:04:16;101489.22;;;9.49;100.00
70015;BME280;57358;51.094;6.760;2023-02-18T06:06:42;101427.50;;;9.15;100.00
70015;BME280;57358;51.094;6.760;2023-02-18T06:09:09;101485.78;;;9.47;100.00
70015;BME280;57358;51.094;6.760;2023-02-18T06:11:35;101488.25;;;9.52;100.00
70015;BME280;57358;51.094;6.760;2023-02-18T06:14:02;101418.00;;;9.13;100.00
70015;BME280;57358;51.094;6.760;2023-02-18T06:16:28;101466.97;;;9.36;100.00
70015;BME280;57358;51.094;6.760;2023-02-18T06:18:56;101490.00;;;9.51;100.00
70015;BME280;57358;51.094;6.760;2023-02-18T06:21:22;101347.03;;;8.70;100.00
70015;BME280;57358;51.094;6.760;2023-02-18T06:23:49;101481.09;;;9.57;100.00
70015;BME280;57358;51.094;6.760;2023-02-18T06:26:15;101458.00;;;9.43;100.00
70015;BME280;57358;51.094;6.760;2023-02-18T06:28:42;101480.25;;;9.56;100.00
70015;BME280;57358;51.094;6.760;2023-02-18T06:31:08;101411.81;;;9.15;100.00
70015;BME280;57358;51.094;6.760;2023-02-18T06:33:35;101451.38;;;9.33;100.00
70015;BME280;57358;51.094;6.760;2023-02-18T06:36:04;101474.81;;;9.61;100.00
70015;BME280;57358;51.094;6.760;2023-02-18T06:38:34;101471.28;;;9.62;100.00
70015;BME280;57358;51.094;6.760;2023-02-18T06:41:01;101442.84;;;9.51;100.00
70015;BME280;57358;51.094;6.760;2023-02-18T06:43:27;101470.38;;;9.63;100.00
70015;BME280;57358;51.094;6.760;2023-02-18T06:45:53;101411.09;;;9.35;100.00
70015;BME280;57358;51.094;6.760;2023-02-18T06:48:20;101342.28;;;8.82;100.00
70015;BME280;57358;51.094;6.760;2023-02-18T06:50:47;101434.66;;;9.61;100.00
70015;BME280;57358;51.094;6.760;2023-02-18T06:53:14;101466.34;;;9.78;100.00
70015;BME280;57358;51.094;6.760;2023-02-18T06:55:43;101463.06;;;9.73;100.00
70015;BME280;57358;51.094;6.760;2023-02-18T06:58:10;101468.91;;;9.79;100.00
70015;BME280;57358;51.094;6.760;2023-02-18T07:00:37;101473.31;;;9.79;100.00
70015;BME280;57358;51.094;6.760;2023-02-18T07:03:05;101473.34;;;9.77;100.00
70015;BME280;57358;51.094;6.760;2023-02-18T07:05:32;101391.91;;;9.35;100.00
70015;BME280;57358;51.094;6.760;2023-02-18T07:07:59;101477.31;;;9.89;100.00
70015;BME280;57358;51.094;6.760;2023-02-18T07:10:25;101474.50;;;9.94;100.00
70015;BME280;57358;51.094;6.760;2023-02-18T07:12:52;101480.63;;;9.94;100.00
70015;BME280;57358;51.094;6.760;2023-02-18T07:15:18;101478.72;;;9.98;100.00
70015;BME280;57358;51.094;6.760;2023-02-18T07:17:50;101485.69;;;9.99;100.00
70015;BME280;57358;51.094;6.760;2023-02-18T07:20:18;101482.72;;;9.85;100.00
70015;BME280;57358;51.094;6.760;2023-02-18T07:22:45;101503.13;;;10.00;100.00
70015;BME280;57358;51.094;6.760;2023-02-18T07:25:12;101478.31;;;9.85;100.00
70015;BME280;57358;51.094;6.760;2023-02-18T07:27:39;101414.56;;;9.61;100.00
70015;BME280;57358;51.094;6.760;2023-02-18T07:30:06;101469.91;;;10.01;100.00
70015;BME280;57358;51.094;6.760;2023-02-18T07:32:33;101430.75;;;9.72;100.00
70015;BME280;57358;51.094;6.760;2023-02-18T07:35:00;101335.28;;;9.07;100.00
70015;BME280;57358;51.094;6.760;2023-02-18T07:37:26;101483.59;;;10.09;100.00
70015;BME280;57358;51.094;6.760;2023-02-18T07:39:53;101444.34;;;9.82;100.00
70015;BME280;57358;51.094;6.760;2023-02-18T07:42:19;101475.75;;;10.07;100.00
70015;BME280;57358;51.094;6.760;2023-02-18T07:44:46;101517.09;;;10.01;100.00
70015;BME280;57358;51.094;6.760;2023-02-18T07:47:14;101505.13;;;9.93;100.00
70015;BME280;57358;51.094;6.760;2023-02-18T07:49:42;101504.72;;;9.81;100.00
70015;BME280;57358;51.094;6.760;2023-02-18T07:52:08;101425.88;;;9.13;100.00
70015;BME280;57358;51.094;6.760;2023-02-18T07:54:35;101476.63;;;9.34;100.00
70015;BME280;57358;51.094;6.760;2023-02-18T07:57:01;101502.28;;;9.51;100.00
70015;BME280;57358;51.094;6.760;2023-02-18T07:59:28;101486.31;;;9.32;100.00
70015;BME280;57358;51.094;6.760;2023-02-18T08:01:54;101543.59;;;9.68;100.00
70015;BME280;57358;51.094;6.760;2023-02-18T08:04:21;101545.28;;;9.70;100.00
70015;BME280;57358;51.094;6.760;2023-02-18T08:06:48;101546.94;;;9.73;100.00
70015;BME280;57358;51.094;6.760;2023-02-18T08:09:16;101554.03;;;9.69;100.00
70015;BME280;57358;51.094;6.760;2023-02-18T08:11:42;101545.69;;;9.58;100.00
70015;BME280;57358;51.094;6.760;2023-02-18T08:14:09;101550.03;;;9.59;100.00
70015;BME280;57358;51.094;6.760;2023-02-18T08:16:35;101548.03;;;9.41;100.00
70015;BME280;57358;51.094;6.760;2023-02-18T08:19:02;101484.84;;;8.98;100.00
70015;BME280;57358;51.094;6.760;2023-02-18T08:21:29;101492.75;;;8.96;100.00
70015;BME280;57358;51.094;6.760;2023-02-18T08:23:57;101564.16;;;9.28;100.00
70015;BME280;57358;51.094;6.760;2023-02-18T08:26:24;101561.69;;;9.24;100.00
70015;BME280;57358;51.094;6.760;2023-02-18T08:28:53;101564.25;;;9.25;100.00
70015;BME280;57358;51.094;6.760;2023-02-18T08:31:23;101527.63;;;8.97;100.00
70015;BME280;57358;51.094;6.760;2023-02-18T08:33:51;101570.94;;;9.07;100.00
70015;BME280;57358;51.094;6.760;2023-02-18T08:36:18;101542.94;;;9.09;100.00
70015;BME280;57358;51.094;6.760;2023-02-18T08:38:45;101388.22;;;8.09;100.00
70015;BME280;57358;51.094;6.760;2023-02-18T08:41:11;101585.41;;;9.19;100.00
70015;BME280;57358;51.094;6.760;2023-02-18T08:43:40;101497.78;;;8.76;100.00
70015;BME280;57358;51.094;6.760;2023-02-18T08:46:06;101550.50;;;9.18;100.00
70015;BME280;57358;51.094;6.760;2023-02-18T08:48:41;101568.47;;;9.29;100.00
70015;BME280;57358;51.094;6.760;2023-02-18T08:51:19;101556.59;;;9.46;100.00
70015;BME280;57358;51.094;6.760;2023-02-18T08:53:47;101551.94;;;9.54;100.00
70015;BME280;57358;51.094;6.760;2023-02-18T08:56:14;101547.19;;;9.65;100.00
70015;BME280;57358;51.094;6.760;2023-02-18T08:58:42;101520.56;;;9.52;100.00
70015;BME280;57358;51.094;6.760;2023-02-18T09:01:10;101503.75;;;9.33;100.00
70015;BME280;57358;51.094;6.760;2023-02-18T09:03:38;101544.31;;;9.73;100.00
70015;BME280;57358;51.094;6.760;2023-02-18T09:06:05;101547.22;;;9.64;100.00
70015;BME280;57358;51.094;6.760;2023-02-18T09:08:32;101503.38;;;9.44;100.00
70015;BME280;57358;51.094;6.760;2023-02-18T09:11:01;101457.25;;;9.14;100.00
70015;BME280;57358;51.094;6.760;2023-02-18T09:13:32;101493.03;;;9.41;100.00
70015;BME280;57358;51.094;6.760;2023-02-18T09:16:01;101502.16;;;9.54;100.00
70015;BME280;57358;51.094;6.760;2023-02-18T09:18:30;101527.03;;;9.67;100.00
70015;BME280;57358;51.094;6.760;2023-02-18T09:20:58;101509.22;;;9.77;100.00
70015;BME280;57358;51.094;6.760;2023-02-18T09:23:26;101494.59;;;9.70;100.00
70015;BME280;57358;51.094;6.760;2023-02-18T09:25:53;101460.22;;;9.54;100.00
70015;BME280;57358;51.094;6.760;2023-02-18T09:28:20;101438.59;;;9.49;100.00
70015;BME280;57358;51.094;6.760;2023-02-18T09:30:46;101479.56;;;9.75;100.00
70015;BME280;57358;51.094;6.760;2023-02-18T09:33:13;101511.88;;;10.01;100.00
70015;BME280;57358;51.094;6.760;2023-02-18T09:35:41;101505.97;;;9.94;100.00
70015;BME280;57358;51.094;6.760;2023-02-18T09:38:14;101488.75;;;9.87;100.00
70015;BME280;57358;51.094;6.760;2023-02-18T09:40:45;101469.09;;;9.75;100.00
70015;BME280;57358;51.094;6.760;2023-02-18T09:43:45;101484.41;;;9.86;100.00
70015;BME280;57358;51.094;6.760;2023-02-18T09:46:31;101443.34;;;9.63;100.00
70015;BME280;57358;51.094;6.760;2023-02-18T09:49:02;101477.19;;;9.92;100.00
70015;BME280;57358;51.094;6.760;2023-02-18T09:51:29;101484.94;;;9.95;100.00
70015;BME280;57358;51.094;6.760;2023-02-18T09:53:55;101427.75;;;9.58;100.00
70015;BME280;57358;51.094;6.760;2023-02-18T09:56:28;101470.22;;;9.91;100.00
70015;BME280;57358;51.094;6.760;2023-02-18T09:58:58;101481.34;;;9.98;100.00
70015;BME280;57358;51.094;6.760;2023-02-18T10:01:34;101438.38;;;9.78;100.00
70015;BME280;57358;51.094;6.760;2023-02-18T10:04:12;101476.00;;;10.01;100.00
70015;BME280;57358;51.094;6.760;2023-02-18T10:06:39;101432.72;;;9.89;100.00
70015;BME280;57358;51.094;6.760;2023-02-18T10:09:16;101383.66;;;9.69;100.00
70015;BME280;57358;51.094;6.760;2023-02-18T10:11:47;101453.94;;;10.07;100.00
70015;BME280;57358;51.094;6.760;2023-02-18T10:14:15;101351.09;;;9.53;100.00
70015;BME280;57358;51.094;6.760;2023-02-18T10:16:43;101434.53;;;10.11;100.00
70015;BME280;57358;51.094;6.760;2023-02-18T10:19:30;101423.22;;;10.10;100.00
70015;BME280;57358;51.094;6.760;2023-02-18T10:22:00;101363.84;;;9.62;100.00
70015;BME280;57358;51.094;6.760;2023-02-18T10:24:32;101442.84;;;10.22;100.00
70015;BME280;57358;51.094;6.760;2023-02-18T10:27:02;101392.94;;;9.78;100.00
70015;BME280;57358;51.094;6.760;2023-02-18T10:29:30;101198.34;;;8.58;100.00
70015;BME280;57358;51.094;6.760;2023-02-18T10:32:20;101448.22;;;10.19;100.00
70015;BME280;57358;51.094;6.760;2023-02-18T10:34:55;101410.25;;;10.06;100.00
70015;BME280;57358;51.094;6.760;2023-02-18T10:45:27;101464.19;;;10.13;100.00
70015;BME280;57358;51.094;6.760;2023-02-18T10:48:08;101470.47;;;10.09;100.00
70015;BME280;57358;51.094;6.760;2023-02-18T10:50:43;101486.59;;;9.98;100.00
70015;BME280;57358;51.094;6.760;2023-02-18T10:55:53;101479.66;;;9.48;100.00
70015;BME280;57358;51.094;6.760;2023-02-18T10:58:33;101520.34;;;9.58;100.00
70015;BME280;57358;51.094;6.760;2023-02-18T11:01:05;101497.25;;;9.45;100.00
70015;BME280;57358;51.094;6.760;2023-02-18T11:03:51;101504.41;;;9.39;100.00
70015;BME280;57358;51.094;6.760;2023-02-18T11:06:39;101523.88;;;9.57;100.00
70015;BME280;57358;51.094;6.760;2023-02-18T11:09:24;101479.47;;;9.28;100.00
70015;BME280;57358;51.094;6.760;2023-02-18T11:11:58;101516.59;;;9.66;100.00
70015;BME280;57358;51.094;6.760;2023-02-18T11:14:43;101528.56;;;9.48;100.00
70015;BME280;57358;51.094;6.760;2023-02-18T11:17:29;101512.28;;;9.38;100.00
70015;BME280;57358;51.094;6.760;2023-02-18T11:19:58;101531.25;;;9.46;100.00
70015;BME280;57358;51.094;6.760;2023-02-18T11:22:31;101529.00;;;9.61;100.00
70015;BME280;57358;51.094;6.760;2023-02-18T11:25:01;101542.44;;;9.76;100.00
70015;BME280;57358;51.094;6.760;2023-02-18T11:27:42;101532.31;;;9.66;100.00
70015;BME280;57358;51.094;6.760;2023-02-18T11:30:46;101518.16;;;9.46;100.00
70015;BME280;57358;51.094;6.760;2023-02-18T11:33:43;101559.22;;;9.71;100.00
70015;BME280;57358;51.094;6.760;2023-02-18T11:36:27;101545.00;;;9.53;100.00
70015;BME280;57358;51.094;6.760;2023-02-18T11:38:56;101512.28;;;9.65;100.00
70015;BME280;57358;51.094;6.760;2023-02-18T11:41:37;101539.16;;;9.70;100.00
70015;BME280;57358;51.094;6.760;2023-02-18T11:44:15;101547.56;;;9.79;100.00
70015;BME280;57358;51.094;6.760;2023-02-18T11:49:41;101543.69;;;9.90;100.00
70015;BME280;57358;51.094;6.760;2023-02-18T11:52:17;101518.38;;;9.65;100.00
70015;BME280;57358;51.094;6.760;2023-02-18T11:55:05;101549.34;;;9.79;100.00
70015;BME280;57358;51.094;6.760;2023-02-18T11:57:37;101519.28;;;9.64;100.00
70015;BME280;57358;51.094;6.760;2023-02-18T12:02:42;101542.50;;;9.75;100.00
70015;BME280;57358;51.094;6.760;2023-02-18T12:05:13;101550.88;;;9.85;100.00
70015;BME280;57358;51.094;6.760;2023-02-18T12:07:42;101543.31;;;10.01;100.00
70015;BME280;57358;51.094;6.760;2023-02-18T12:10:14;101549.00;;;9.88;100.00
70015;BME280;57358;51.094;6.760;2023-02-18T12:12:53;101528.78;;;9.67;100.00
70015;BME280;57358;51.094;6.760;2023-02-18T12:15:31;101464.72;;;9.25;100.00
70015;BME280;57358;51.094;6.760;2023-02-18T12:18:10;101547.25;;;9.89;100.00
70015;BME280;57358;51.094;6.760;2023-02-18T12:20:48;101540.09;;;9.69;100.00
70015;BME280;57358;51.094;6.760;2023-02-18T12:26:24;101533.78;;;9.74;100.00
70015;BME280;57358;51.094;6.760;2023-02-18T12:29:20;101539.88;;;9.75;100.00
70015;BME280;57358;51.094;6.760;2023-02-18T12:32:28;101533.47;;;9.82;100.00
70015;BME280;57358;51.094;6.760;2023-02-18T12:35:18;101517.88;;;9.79;100.00
70015;BME280;57358;51.094;6.760;2023-02-18T12:40:35;101530.28;;;9.74;100.00
70015;BME280;57358;51.094;6.760;2023-02-18T12:51:25;101509.22;;;9.77;100.00
70015;BME280;57358;51.094;6.760;2023-02-18T12:54:03;101523.66;;;9.89;100.00
70015;BME280;57358;51.094;6.760;2023-02-18T13:08:09;101535.72;;;9.68;100.00
70015;BME280;57358;51.094;6.760;2023-02-18T13:16:19;101504.41;;;9.39;100.00
70015;BME280;57358;51.094;6.760;2023-02-18T13:18:58;101534.47;;;9.54;100.00
70015;BME280;57358;51.094;6.760;2023-02-18T13:21:28;101522.81;;;9.63;100.00
70015;BME280;57358;51.094;6.760;2023-02-18T13:24:04;101502.16;;;9.54;100.00
70015;BME280;57358;51.094;6.760;2023-02-18T13:26:33;101518.44;;;9.62;100.00
70015;BME280;57358;51.094;6.760;2023-02-18T13:32:05;101486.81;;;9.43;100.00
70015;BME280;57358;51.094;6.760;2023-02-18T13:35:06;101532.25;;;9.67;100.00
70015;BME280;57358;51.094;6.760;2023-02-18T13:40:31;101445.25;;;9.07;100.00
70015;BME280;57358;51.094;6.760;2023-02-18T13:43:29;101514.88;;;9.65;100.00
70015;BME280;57358;51.094;6.760;2023-02-18T13:48:29;101519.75;;;9.50;100.00
70015;BME280;57358;51.094;6.760;2023-02-18T13:51:02;101440.44;;;8.95;100.00
70015;BME280;57358;51.094;6.760;2023-02-18T13:53:36;101471.94;;;9.18;100.00
70015;BME280;57358;51.094;6.760;2023-02-18T13:56:08;101532.88;;;9.50;100.00
70015;BME280;57358;51.094;6.760;2023-02-18T13:58:41;101511.03;;;9.50;100.00
70015;BME280;57358;51.094;6.760;2023-02-18T14:08:44;101490.88;;;9.27;100.00
70015;BME280;57358;51.094;6.760;2023-02-18T14:16:25;101502.34;;;9.23;100.00
70015;BME280;57358;51.094;6.760;2023-02-18T14:19:00;101504.56;;;9.35;100.00
70015;BME280;57358;51.094;6.760;2023-02-18T14:21:41;101537.09;;;9.54;100.00
70015;BME280;57358;51.094;6.760;2023-02-18T14:24:10;101466.91;;;9.12;100.00
70015;BME280;57358;51.094;6.760;2023-02-18T14:26:41;101537.69;;;9.63;100.00
70015;BME280;57358;51.094;6.760;2023-02-18T14:29:16;101533.38;;;9.60;100.00
70015;BME280;57358;51.094;6.760;2023-02-18T14:31:55;101518.44;;;9.62;100.00
70015;BME280;57358;51.094;6.760;2023-02-18T14:34:26;101518.41;;;9.64;100.00
70015;BME280;57358;51.094;6.760;2023-02-18T14:37:06;101517.28;;;9.71;100.00
70015;BME280;57358;51.094;6.760;2023-02-18T14:39:55;101525.25;;;9.68;100.00
70015;BME280;57358;51.094;6.760;2023-02-18T14:43:05;101518.91;;;9.75;100.00